Time;durP1;ratioP1;P1;durP2;ratioP2;P2;SDS_P1;SDS_P2;PMS_P1;PMS_P2;Temp;Humidity;BMP_temperature;BMP_pressure;BME280_temperature;BME280_humidity;BME280_pressure;Samples;Min_cycle;Max_cycle;Signal;HPM_P1;HPM_P2
2021/09/07 00:00:19;;;;;;;14.75;10.27;;;;;;;16.74;100.00;97022.19;5102660;28;20071;-57
2021/09/07 00:02:48;;;;;;;15.45;10.75;;;;;;;16.57;100.00;97029.38;5096244;28;20059;-55
2021/09/07 00:05:16;;;;;;;14.07;10.48;;;;;;;16.97;100.00;97019.69;5110322;27;20079;-58
2021/09/07 00:07:44;;;;;;;18.45;11.48;;;;;;;16.55;100.00;97018.06;5102771;27;20517;-57
2021/09/07 00:10:14;;;;;;;12.98;10.50;;;;;;;16.48;100.00;97017.91;5098387;27;20064;-56
2021/09/07 00:12:44;;;;;;;15.38;11.32;;;;;;;16.29;100.00;97012.94;5101098;27;20090;-56
2021/09/07 00:15:14;;;;;;;13.93;10.93;;;;;;;16.04;100.00;97026.22;5103638;27;20462;-56
2021/09/07 00:17:43;;;;;;;16.90;11.00;;;;;;;16.70;100.00;97015.56;5102013;28;20118;-56
2021/09/07 00:20:14;;;;;;;13.32;10.35;;;;;;;16.63;100.00;97014.56;5097516;28;20087;-52
2021/09/07 00:22:43;;;;;;;15.10;11.18;;;;;;;16.35;100.00;97012.28;5097373;28;20530;-56
2021/09/07 00:25:12;;;;;;;14.20;10.80;;;;;;;16.11;100.00;97016.59;5096507;28;20042;-54
2021/09/07 00:27:40;;;;;;;17.23;12.30;;;;;;;16.04;100.00;97009.44;5095262;28;20486;-57
2021/09/07 00:30:11;;;;;;;16.90;12.85;;;;;;;16.24;100.00;97010.78;5096810;28;20075;-55
2021/09/07 00:32:40;;;;;;;19.05;12.52;;;;;;;16.25;100.00;97006.28;5096628;28;20090;-54
2021/09/07 00:35:11;;;;;;;15.98;10.93;;;;;;;16.25;100.00;96996.47;5094371;28;20067;-56
2021/09/07 00:37:40;;;;;;;17.00;11.35;;;;;;;16.20;100.00;97011.25;5091680;28;20071;-55
2021/09/07 00:40:10;;;;;;;16.40;11.30;;;;;;;15.69;100.00;97015.84;5101194;28;20067;-57
2021/09/07 00:42:39;;;;;;;16.33;11.95;;;;;;;15.77;100.00;97007.91;5102648;28;20070;-56
2021/09/07 00:45:12;;;;;;;15.82;11.30;;;;;;;16.36;100.00;96998.78;5092059;28;20068;-57
2021/09/07 00:47:40;;;;;;;14.48;10.35;;;;;;;16.06;100.00;97008.25;5096618;28;20082;-50
2021/09/07 00:50:09;;;;;;;15.57;11.40;;;;;;;16.27;100.00;97005.09;5106172;28;20464;-56
2021/09/07 00:52:39;;;;;;;15.38;11.43;;;;;;;16.55;100.00;97010.06;5103844;27;20071;-57
2021/09/07 00:55:08;;;;;;;15.48;10.70;;;;;;;16.41;100.00;97005.44;5094054;27;20076;-52
2021/09/07 00:57:38;;;;;;;14.20;10.57;;;;;;;16.44;100.00;97010.41;5098234;28;20071;-52
2021/09/07 01:00:10;;;;;;;21.20;11.45;;;;;;;16.15;100.00;97006.44;5100268;27;20063;-56
2021/09/07 01:02:39;;;;;;;13.13;10.18;;;;;;;15.87;100.00;97016.56;5097202;27;20072;-59
2021/09/07 01:05:09;;;;;;;13.43;9.98;;;;;;;16.60;100.00;97013.06;5101497;27;20071;-56
2021/09/07 01:07:38;;;;;;;13.98;10.73;;;;;;;16.07;100.00;97012.59;5107971;27;20135;-54
2021/09/07 01:10:08;;;;;;;16.80;10.45;;;;;;;15.86;100.00;97012.22;5105100;27;20478;-57
2021/09/07 01:12:37;;;;;;;15.32;10.73;;;;;;;16.43;100.00;97008.75;5103308;27;20067;-54
2021/09/07 01:15:07;;;;;;;18.17;10.45;;;;;;;16.34;100.00;97003.47;5102265;27;20548;-56
2021/09/07 01:17:38;;;;;;;16.67;11.23;;;;;;;16.21;100.00;97007.59;5098653;27;20083;-52
2021/09/07 01:20:07;;;;;;;;;;;;;;;15.92;100.00;97008.09;5104783;27;20056;-55
2021/09/07 01:22:36;;;;;;;15.50;11.02;;;;;;;16.47;100.00;96999.44;5097936;28;20342;-56
2021/09/07 01:25:06;;;;;;;16.27;11.68;;;;;;;16.15;100.00;96998.47;5106361;27;20075;-57
2021/09/07 01:27:36;;;;;;;16.05;11.50;;;;;;;16.37;100.00;96987.13;5103517;27;20175;-57
2021/09/07 01:30:05;;;;;;;17.55;12.30;;;;;;;16.16;100.00;96989.47;5096832;27;20066;-52
2021/09/07 01:32:33;;;;;;;14.90;11.43;;;;;;;15.39;100.00;96999.47;5100551;27;20079;-53
2021/09/07 01:35:02;;;;;;;16.80;12.30;;;;;;;15.23;100.00;96997.59;5098863;28;20094;-55
2021/09/07 01:37:31;;;;;;;18.55;12.60;;;;;;;15.22;100.00;96995.91;5101995;27;20070;-55
2021/09/07 01:39:59;;;;;;;17.70;11.85;;;;;;;15.50;100.00;96987.72;5105650;27;20075;-54
2021/09/07 01:42:29;;;;;;;15.27;11.45;;;;;;;16.03;100.00;96981.16;5103491;27;20484;-55
2021/09/07 01:44:57;;;;;;;14.50;11.00;;;;;;;15.87;100.00;96985.47;5103278;27;20067;-55
2021/09/07 01:47:26;;;;;;;15.82;11.05;;;;;;;15.78;100.00;96988.28;5096616;27;20111;-55
2021/09/07 01:49:54;;;;;;;19.88;10.13;;;;;;;15.74;100.00;96982.47;5102268;27;20443;-53
2021/09/07 01:52:22;;;;;;;15.55;10.82;;;;;;;15.76;100.00;96991.13;5103597;27;20067;-56
2021/09/07 01:54:51;;;;;;;15.85;11.52;;;;;;;15.79;100.00;96989.94;5103027;27;20128;-56
2021/09/07 01:57:19;;;;;;;14.10;10.70;;;;;;;16.13;100.00;96979.97;5101259;27;20071;-55
2021/09/07 01:59:49;;;;;;;14.63;10.43;;;;;;;16.26;100.00;96983.97;5102669;27;20075;-56
2021/09/07 02:02:17;;;;;;;17.25;11.30;;;;;;;16.05;100.00;96987.97;5107435;27;20449;-52
2021/09/07 02:04:46;;;;;;;13.68;10.25;;;;;;;16.16;100.00;96984.16;5097393;27;20048;-54
2021/09/07 02:07:14;;;;;;;13.13;10.35;;;;;;;15.78;100.00;96994.44;5099221;27;20067;-55
2021/09/07 02:09:43;;;;;;;13.00;9.35;;;;;;;15.69;100.00;96999.91;5107281;27;20460;-51
2021/09/07 02:12:12;;;;;;;11.52;8.73;;;;;;;15.66;100.00;96996.59;5096272;27;20067;-54
2021/09/07 02:14:40;;;;;;;9.63;8.15;;;;;;;15.18;100.00;97005.22;5099353;27;20059;-51
2021/09/07 02:17:10;;;;;;;10.70;8.25;;;;;;;15.77;100.00;97002.59;5101679;28;20079;-55
2021/09/07 02:19:39;;;;;;;11.57;9.40;;;;;;;15.53;100.00;96996.19;5084668;28;20074;-55
2021/09/07 02:22:07;;;;;;;13.80;10.63;;;;;;;15.39;100.00;97002.97;5097302;27;20498;-56
2021/09/07 02:24:35;;;;;;;16.90;11.27;;;;;;;15.83;100.00;96996.63;5084139;28;20076;-53
2021/09/07 02:27:04;;;;;;;14.43;10.80;;;;;;;15.85;100.00;96998.09;5094083;28;20470;-54
2021/09/07 02:29:33;;;;;;;14.75;11.57;;;;;;;15.78;100.00;96991.78;5078627;28;20455;-52
2021/09/07 02:32:01;;;;;;;14.95;11.60;;;;;;;16.25;100.00;96985.00;5088509;28;20080;-55
2021/09/07 02:34:31;;;;;;;18.38;12.32;;;;;;;16.35;100.00;96993.63;5086316;28;20078;-56
2021/09/07 02:36:59;;;;;;;17.40;12.80;;;;;;;16.48;100.00;96979.78;5078450;28;20064;-49
2021/09/07 02:39:28;;;;;;;17.50;13.30;;;;;;;16.04;100.00;96982.84;5073768;28;20094;-53
2021/09/07 02:41:56;;;;;;;18.73;13.40;;;;;;;16.04;100.00;96974.84;5084546;28;20134;-52
2021/09/07 02:44:24;;;;;;;20.15;13.98;;;;;;;16.31;100.00;96977.16;5083698;28;20080;-55
2021/09/07 02:46:53;;;;;;;19.58;14.30;;;;;;;16.36;100.00;96974.00;5080944;28;20450;-50
2021/09/07 02:49:21;;;;;;;22.55;15.13;;;;;;;16.35;100.00;96970.50;5087741;28;20553;-56
2021/09/07 02:51:51;;;;;;;19.88;13.85;;;;;;;16.07;100.00;96978.00;5083061;28;20063;-54
2021/09/07 02:54:20;;;;;;;22.48;14.77;;;;;;;15.75;100.00;96983.28;5079020;28;20156;-55
2021/09/07 02:56:48;;;;;;;19.08;13.93;;;;;;;15.54;100.00;96981.06;5082630;28;20068;-53
2021/09/07 02:59:16;;;;;;;17.55;12.77;;;;;;;16.11;100.00;96970.53;5094360;28;20530;-54
2021/09/07 03:01:45;;;;;;;17.42;12.55;;;;;;;15.87;100.00;96961.53;5086903;28;20071;-52
2021/09/07 03:04:14;;;;;;;22.00;13.38;;;;;;;15.99;100.00;96972.66;5080685;28;20681;-55
2021/09/07 03:06:43;;;;;;;21.00;12.55;;;;;;;16.28;100.00;96974.00;5076081;28;20079;-53
2021/09/07 03:09:12;;;;;;;15.65;11.60;;;;;;;16.05;100.00;96974.66;5087823;28;20071;-55
2021/09/07 03:11:41;;;;;;;19.92;12.43;;;;;;;16.11;100.00;96973.19;5077336;28;20088;-53
2021/09/07 03:14:09;;;;;;;17.08;12.23;;;;;;;15.89;100.00;96977.31;5087422;28;20079;-53
2021/09/07 03:16:38;;;;;;;15.93;12.20;;;;;;;16.10;100.00;96975.03;5080653;28;20541;-52
2021/09/07 03:19:06;;;;;;;16.30;11.85;;;;;;;15.74;100.00;96986.97;5075425;28;20075;-55
2021/09/07 03:21:34;;;;;;;16.63;11.63;;;;;;;15.72;100.00;96979.13;5086485;28;20068;-53
2021/09/07 03:24:03;;;;;;;16.23;12.00;;;;;;;15.98;100.00;96983.50;5096038;27;20074;-50
2021/09/07 03:26:32;;;;;;;17.30;11.85;;;;;;;15.80;100.00;96986.31;5096844;27;20667;-53
2021/09/07 03:29:01;;;;;;;23.07;13.17;;;;;;;15.36;100.00;96979.34;5098720;28;20755;-53
2021/09/07 03:31:29;;;;;;;15.68;11.60;;;;;;;15.71;100.00;96985.44;5100581;27;20063;-50
2021/09/07 03:33:57;;;;;;;16.60;12.18;;;;;;;15.64;100.00;96982.56;5099591;27;20060;-53
2021/09/07 03:36:26;;;;;;;15.85;12.55;;;;;;;15.95;100.00;96976.66;5094467;27;20608;-50
2021/09/07 03:38:54;;;;;;;21.42;13.40;;;;;;;15.49;100.00;96978.91;5105520;27;20067;-51
2021/09/07 03:41:23;;;;;;;29.45;13.77;;;;;;;15.65;100.00;96980.75;5094847;28;20068;-51
2021/09/07 03:43:52;;;;;;;25.70;13.73;;;;;;;15.95;100.00;96978.50;5091802;27;20316;-55
2021/09/07 03:46:21;;;;;;;22.70;14.70;;;;;;;15.87;100.00;96979.31;5101723;27;20067;-54
2021/09/07 03:48:49;;;;;;;21.42;14.98;;;;;;;15.33;100.00;96986.81;5093751;27;20067;-54
2021/09/07 03:51:17;;;;;;;23.77;16.52;;;;;;;15.15;100.00;96981.63;5094064;27;20532;-54
2021/09/07 03:53:47;;;;;;;24.17;15.82;;;;;;;14.93;100.00;96980.34;5095445;28;20071;-55
2021/09/07 03:56:17;;;;;;;21.98;15.88;;;;;;;14.91;100.00;96975.22;5097952;28;20080;-48
2021/09/07 03:58:46;;;;;;;22.58;15.73;;;;;;;15.29;100.00;96975.69;5097361;28;20468;-51
2021/09/07 04:01:16;;;;;;;21.48;15.65;;;;;;;15.56;100.00;96979.91;5097009;27;20457;-56
2021/09/07 04:03:45;;;;;;;21.80;13.73;;;;;;;15.05;100.00;96975.59;5100632;27;20063;-53
2021/09/07 04:06:13;;;;;;;18.35;13.60;;;;;;;15.35;100.00;96979.53;5096823;28;20079;-50
2021/09/07 04:08:41;;;;;;;18.05;13.10;;;;;;;15.36;100.00;96982.00;5092338;28;20091;-52
2021/09/07 04:11:10;;;;;;;18.02;13.15;;;;;;;15.53;100.00;96984.72;5098507;27;20101;-56
2021/09/07 04:13:39;;;;;;;18.88;12.90;;;;;;;14.82;100.00;96976.16;5093193;28;20557;-55
2021/09/07 04:16:08;;;;;;;21.67;14.88;;;;;;;15.41;100.00;96979.69;5096478;27;20067;-55
2021/09/07 04:18:37;;;;;;;21.02;13.88;;;;;;;14.79;100.00;96981.78;5094171;28;20067;-52
2021/09/07 04:21:08;;;;;;;21.23;13.87;;;;;;;14.67;100.00;96983.06;5098449;27;20086;-53
2021/09/07 04:23:37;;;;;;;25.42;15.40;;;;;;;14.58;100.00;96981.31;5097411;28;20460;-52
2021/09/07 04:26:06;;;;;;;22.83;14.70;;;;;;;14.46;100.00;96984.22;5096887;28;20083;-52
2021/09/07 04:28:34;;;;;;;22.90;16.02;;;;;;;14.84;100.00;96984.81;5095714;28;20451;-50
2021/09/07 04:31:02;;;;;;;19.60;14.93;;;;;;;14.66;100.00;96986.69;5094007;27;20070;-54
2021/09/07 04:33:31;;;;;;;22.27;14.90;;;;;;;14.79;100.00;96995.03;5094894;28;20091;-53
2021/09/07 04:36:00;;;;;;;21.02;15.13;;;;;;;14.78;100.00;96984.59;5099570;28;20517;-54
2021/09/07 04:38:29;;;;;;;19.33;15.17;;;;;;;14.79;100.00;96988.91;5102561;28;20094;-52
2021/09/07 04:40:57;;;;;;;18.27;14.77;;;;;;;14.93;100.00;96983.00;5097299;28;20185;-54
2021/09/07 04:43:26;;;;;;;20.95;14.45;;;;;;;14.92;100.00;96981.34;5096340;28;20059;-57
2021/09/07 04:45:54;;;;;;;21.95;15.07;;;;;;;15.33;100.00;96981.50;5098119;28;20544;-55
2021/09/07 04:48:23;;;;;;;20.08;14.38;;;;;;;15.32;100.00;96980.69;5091809;28;20068;-55
2021/09/07 04:50:51;;;;;;;23.58;15.85;;;;;;;15.51;100.00;96976.91;5096772;28;20075;-57
2021/09/07 04:53:21;;;;;;;30.83;15.80;;;;;;;15.34;100.00;96983.16;5096720;28;20086;-54
2021/09/07 04:55:49;;;;;;;21.57;15.57;;;;;;;15.11;100.00;96985.59;5094745;28;20071;-53
2021/09/07 04:58:18;;;;;;;22.17;15.65;;;;;;;15.17;100.00;96985.78;5090014;28;20072;-54
2021/09/07 05:00:46;;;;;;;20.83;14.95;;;;;;;15.23;100.00;96994.91;5096403;28;20086;-52
2021/09/07 05:03:15;;;;;;;25.02;15.98;;;;;;;14.76;100.00;96995.34;5102320;28;20059;-56
2021/09/07 05:05:43;;;;;;;22.50;15.48;;;;;;;14.76;100.00;96991.88;5092211;28;20080;-54
2021/09/07 05:08:12;;;;;;;19.42;14.38;;;;;;;15.16;100.00;96996.56;5093130;28;20079;-56
2021/09/07 05:10:41;;;;;;;19.83;14.60;;;;;;;15.12;100.00;96996.03;5103956;28;20059;-49
2021/09/07 05:13:10;;;;;;;20.97;15.30;;;;;;;15.63;100.00;97004.03;5101859;28;20091;-56
2021/09/07 05:15:38;;;;;;;21.08;14.48;;;;;;;15.73;100.00;97002.09;5095946;28;20074;-57
2021/09/07 05:18:06;;;;;;;18.63;14.65;;;;;;;15.71;100.00;97009.38;5103404;28;20063;-59
2021/09/07 05:20:35;;;;;;;18.70;13.80;;;;;;;15.43;100.00;97017.59;5100092;28;20075;-53
2021/09/07 05:23:03;;;;;;;19.63;13.30;;;;;;;15.74;100.00;97011.72;5099313;28;20083;-50
2021/09/07 05:25:32;;;;;;;18.50;14.00;;;;;;;16.00;100.00;97002.75;5096325;28;20494;-55
2021/09/07 05:28:02;;;;;;;19.65;13.52;;;;;;;16.17;100.00;97004.44;5103451;28;20062;-56
2021/09/07 05:30:30;;;;;;;23.43;13.97;;;;;;;15.93;100.00;97015.06;5095513;28;20554;-52
2021/09/07 05:32:58;;;;;;;23.13;13.27;;;;;;;16.00;100.00;97016.06;5102453;28;20481;-55
2021/09/07 05:35:27;;;;;;;23.60;12.88;;;;;;;15.50;100.00;97017.78;5098673;28;20267;-56
2021/09/07 05:37:55;;;;;;;16.00;12.60;;;;;;;15.95;100.00;97021.88;5107859;28;20106;-55
2021/09/07 05:40:24;;;;;;;14.98;11.15;;;;;;;16.10;100.00;97022.91;5099920;27;20086;-55
2021/09/07 05:42:52;;;;;;;20.13;11.88;;;;;;;16.45;100.00;97022.72;5102634;27;20071;-55
2021/09/07 05:45:22;;;;;;;16.63;11.40;;;;;;;16.68;100.00;97028.19;5105482;27;20114;-56
2021/09/07 05:47:50;;;;;;;16.02;11.63;;;;;;;16.75;100.00;97016.72;5100559;28;20063;-55
2021/09/07 05:50:19;;;;;;;15.57;11.93;;;;;;;17.02;100.00;97018.16;5102606;27;20493;-53
2021/09/07 05:52:47;;;;;;;16.23;11.98;;;;;;;17.36;100.00;97021.53;5099628;27;20063;-52
2021/09/07 05:55:16;;;;;;;19.50;11.30;;;;;;;16.56;100.00;97039.22;5102151;28;20075;-54
2021/09/07 05:57:45;;;;;;;15.68;10.77;;;;;;;16.19;100.00;97031.72;5102746;27;20077;-57
2021/09/07 06:00:14;;;;;;;18.38;11.30;;;;;;;16.62;100.00;97029.72;5103604;27;20075;-55
2021/09/07 06:02:44;;;;;;;16.38;11.30;;;;;;;17.26;100.00;97029.75;5103082;27;20078;-56
2021/09/07 06:05:13;;;;;;;16.30;12.13;;;;;;;16.67;100.00;97027.38;5099739;28;20086;-53
2021/09/07 06:07:41;;;;;;;14.25;12.20;;;;;;;17.40;100.00;97026.34;5099347;27;20070;-54
2021/09/07 06:10:11;;;;;;;17.83;12.40;;;;;;;17.54;100.00;97030.94;5107271;27;20513;-55
2021/09/07 06:12:40;;;;;;;14.98;11.20;;;;;;;17.15;100.00;97038.94;5100606;28;20080;-57
2021/09/07 06:15:09;;;;;;;14.93;11.55;;;;;;;17.43;100.00;97019.84;5095269;27;20063;-57
2021/09/07 06:17:38;;;;;;;16.20;11.65;;;;;;;17.98;100.00;97022.38;5101803;28;20083;-55
2021/09/07 06:20:08;;;;;;;15.25;10.98;;;;;;;18.11;100.00;97021.81;5114133;27;20082;-55
2021/09/07 06:22:38;;;;;;;13.85;10.60;;;;;;;17.67;100.00;97025.06;5096767;28;20075;-56
2021/09/07 06:25:07;;;;;;;15.20;10.93;;;;;;;16.90;100.00;97032.03;5101482;27;20067;-57
2021/09/07 06:27:36;;;;;;;18.05;11.35;;;;;;;18.42;100.00;97029.75;5108061;27;20067;-52
2021/09/07 06:30:05;;;;;;;17.80;11.75;;;;;;;18.69;100.00;97030.19;5113145;27;20468;-56
2021/09/07 06:32:35;;;;;;;17.42;11.70;;;;;;;19.33;100.00;97035.03;5098327;27;20075;-55
2021/09/07 06:35:03;;;;;;;19.35;12.02;;;;;;;19.51;100.00;97032.81;5105280;27;20084;-55
2021/09/07 06:37:33;;;;;;;20.67;12.90;;;;;;;18.89;100.00;97035.84;5113735;27;20524;-55
2021/09/07 06:40:01;;;;;;;18.20;11.73;;;;;;;18.92;100.00;97027.47;5096816;27;20086;-50
2021/09/07 06:42:30;;;;;;;16.90;11.95;;;;;;;20.21;100.00;97035.88;5107551;27;20071;-57
2021/09/07 06:44:58;;;;;;;18.33;11.98;;;;;;;19.85;100.00;97034.88;5101891;27;20067;-56
2021/09/07 06:47:26;;;;;;;17.27;11.55;;;;;;;19.80;100.00;97033.78;5099925;27;20090;-55
2021/09/07 06:49:55;;;;;;;14.75;11.00;;;;;;;20.86;100.00;97024.91;5096322;27;20079;-57
2021/09/07 06:52:24;;;;;;;16.10;11.95;;;;;;;20.74;100.00;97023.78;5108316;27;20553;-56
2021/09/07 06:54:53;;;;;;;15.93;11.18;;;;;;;20.09;100.00;97032.84;5109901;27;20109;-57
2021/09/07 06:57:22;;;;;;;12.82;10.65;;;;;;;20.28;100.00;97036.78;5099661;27;20071;-57
2021/09/07 06:59:52;;;;;;;15.30;11.27;;;;;;;20.98;100.00;97027.88;5097005;27;20070;-58
2021/09/07 07:02:21;;;;;;;16.48;11.20;;;;;;;21.04;100.00;97034.31;5099828;27;20091;-57
2021/09/07 07:04:50;;;;;;;16.02;10.90;;;;;;;20.60;100.00;97043.47;5096670;27;20521;-58
2021/09/07 07:07:18;;;;;;;15.02;11.77;;;;;;;20.75;100.00;97041.53;5099897;27;20462;-56
2021/09/07 07:09:46;;;;;;;15.05;11.88;;;;;;;21.40;100.00;97036.81;5105725;27;20071;-57
2021/09/07 07:12:16;;;;;;;18.27;11.73;;;;;;;21.91;100.00;97036.41;5111049;27;20116;-57
2021/09/07 07:14:45;;;;;;;17.25;12.40;;;;;;;22.56;96.02;97039.44;5099662;27;20071;-57
2021/09/07 07:17:13;;;;;;;15.70;12.32;;;;;;;22.08;100.00;97038.72;5110784;27;20600;-58
2021/09/07 07:19:42;;;;;;;17.67;12.52;;;;;;;21.56;100.00;97038.34;5103792;27;20485;-55
2021/09/07 07:22:10;;;;;;;16.27;13.00;;;;;;;22.27;100.00;97044.19;5098087;27;20093;-57
2021/09/07 07:24:38;;;;;;;20.15;12.93;;;;;;;23.01;91.50;97042.34;5097590;27;20077;-53
2021/09/07 07:27:07;;;;;;;16.98;12.95;;;;;;;22.84;90.85;97035.72;5101572;27;20059;-57
2021/09/07 07:29:36;;;;;;;17.42;12.93;;;;;;;21.78;100.00;97039.88;5099667;27;20447;-57
2021/09/07 07:32:05;;;;;;;15.63;12.50;;;;;;;22.71;96.78;97039.22;5100181;27;20134;-54
2021/09/07 07:34:34;;;;;;;17.40;12.88;;;;;;;22.79;95.72;97033.66;5113438;27;20062;-59
2021/09/07 07:37:05;;;;;;;16.80;13.15;;;;;;;22.75;98.49;97038.63;5105700;27;20078;-57
2021/09/07 07:39:34;;;;;;;16.55;12.23;;;;;;;22.69;100.00;97036.75;5096786;27;20040;-56
2021/09/07 07:42:02;;;;;;;20.02;13.48;;;;;;;22.49;100.00;97036.75;5102606;27;20643;-57
2021/09/07 07:44:31;;;;;;;19.25;13.23;;;;;;;22.57;100.00;97032.19;5105765;27;20089;-58
2021/09/07 07:47:01;;;;;;;18.92;13.07;;;;;;;23.30;97.90;97037.56;5100402;27;20114;-55
2021/09/07 07:49:29;;;;;;;19.23;15.38;;;;;;;21.56;100.00;97044.53;5091251;28;20060;-58
2021/09/07 07:51:58;;;;;;;15.90;12.93;;;;;;;22.80;100.00;97037.19;5101958;28;20489;-56
2021/09/07 07:54:26;;;;;;;19.60;14.45;;;;;;;22.83;100.00;97039.44;5100606;28;20071;-57
2021/09/07 07:56:54;;;;;;;18.52;15.02;;;;;;;23.04;100.00;97041.13;5090833;27;20063;-55
2021/09/07 07:59:23;;;;;;;19.38;14.10;;;;;;;22.97;100.00;97043.81;5108148;27;20091;-56
2021/09/07 08:01:53;;;;;;;18.95;13.88;;;;;;;23.60;95.72;97044.06;5095669;27;20323;-57
2021/09/07 08:04:23;;;;;;;21.40;14.43;;;;;;;23.70;96.65;97043.66;5092028;27;20063;-56
2021/09/07 08:06:51;;;;;;;20.30;14.13;;;;;;;24.17;92.25;97039.69;5093522;27;20067;-56
2021/09/07 08:09:20;;;;;;;18.45;14.48;;;;;;;23.88;91.51;97046.50;5098432;28;20064;-56
2021/09/07 08:11:48;;;;;;;20.52;14.68;;;;;;;22.77;100.00;97051.03;5103654;27;20063;-55
2021/09/07 08:14:16;;;;;;;17.02;14.07;;;;;;;24.09;90.55;97045.34;5096859;27;20420;-56
2021/09/07 08:16:45;;;;;;;20.98;14.93;;;;;;;24.22;85.53;97040.91;5102919;27;20078;-59
2021/09/07 08:19:13;;;;;;;19.30;13.63;;;;;;;24.13;86.37;97041.16;5100267;27;20516;-55
2021/09/07 08:21:43;;;;;;;19.50;14.68;;;;;;;23.69;90.50;97053.59;5093590;27;20078;-56
2021/09/07 08:24:11;;;;;;;19.17;14.27;;;;;;;23.50;97.29;97043.69;5095193;28;20092;-58
2021/09/07 08:26:40;;;;;;;18.67;14.18;;;;;;;24.05;91.34;97040.59;5099660;27;20177;-56
2021/09/07 08:29:08;;;;;;;18.42;14.27;;;;;;;24.26;87.07;97040.28;5096151;28;20534;-57
2021/09/07 08:31:36;;;;;;;18.80;13.95;;;;;;;24.77;80.61;97035.75;5094329;28;20072;-56
2021/09/07 08:34:05;;;;;;;18.08;14.02;;;;;;;24.46;85.34;97036.63;5103737;28;20067;-57
2021/09/07 08:36:33;;;;;;;17.52;14.07;;;;;;;24.90;78.43;97035.66;5105694;28;20544;-56
2021/09/07 08:39:04;;;;;;;19.83;14.10;;;;;;;25.20;75.92;97035.00;5095834;28;20067;-57
2021/09/07 08:41:33;;;;;;;19.40;14.13;;;;;;;24.12;90.28;97035.97;5100868;28;20079;-57
2021/09/07 08:44:01;;;;;;;20.13;13.95;;;;;;;25.12;80.63;97036.13;5102786;28;20079;-56
2021/09/07 08:46:32;;;;;;;17.15;13.52;;;;;;;24.78;80.71;97040.97;5106872;28;20066;-54
2021/09/07 08:49:18;;;;;;;17.23;13.55;;;;;;;25.65;73.01;97038.22;5095416;28;20070;-57
2021/09/07 08:51:47;;;;;;;18.33;13.50;;;;;;;25.97;71.43;97043.47;5100199;28;20482;-58
2021/09/07 08:54:17;;;;;;;16.80;13.13;;;;;;;24.49;80.05;97055.06;5105210;28;20096;-57
2021/09/07 08:56:46;;;;;;;19.65;13.75;;;;;;;24.50;83.07;97051.31;5095150;28;20148;-56
2021/09/07 08:59:14;;;;;;;20.30;12.85;;;;;;;24.75;80.95;97056.75;5103780;28;20084;-58
2021/09/07 09:01:47;;;;;;;18.10;13.15;;;;;;;25.65;75.29;97045.50;5093284;28;20072;-57
2021/09/07 09:04:26;;;;;;;17.63;14.15;;;;;;;25.34;75.99;97042.72;5095926;28;20070;-56
2021/09/07 09:06:54;;;;;;;18.67;13.57;;;;;;;26.08;70.54;97047.28;5100755;28;20059;-57
2021/09/07 09:09:35;;;;;;;16.73;13.02;;;;;;;26.11;68.18;97042.22;5102746;28;20680;-56
2021/09/07 09:12:05;;;;;;;;;;;;;;;26.52;63.70;97044.16;5107358;28;20096;-55
2021/09/07 09:14:37;;;;;;;17.80;12.73;;;;;;;26.50;64.55;97050.88;5097853;28;19958;-58
2021/09/07 09:17:23;;;;;;;18.33;12.07;;;;;;;26.78;63.05;97058.34;5102139;27;20546;-57
2021/09/07 09:19:53;;;;;;;16.50;12.80;;;;;;;26.67;64.16;97051.84;5098470;27;21589;-57
2021/09/07 09:22:23;;;;;;;15.90;11.90;;;;;;;27.04;61.47;97059.75;5105013;27;20077;-56
2021/09/07 09:24:52;;;;;;;16.70;11.95;;;;;;;26.34;60.35;97065.03;5098630;27;20070;-57
2021/09/07 09:27:27;;;;;;;15.27;10.60;;;;;;;26.65;60.95;97058.56;5097951;27;20536;-59
2021/09/07 09:29:55;;;;;;;14.48;10.23;;;;;;;26.47;57.37;97065.69;5107050;27;20064;-56
2021/09/07 09:32:26;;;;;;;14.65;10.70;;;;;;;26.81;56.33;97068.72;5114970;27;20090;-56
2021/09/07 09:35:02;;;;;;;14.63;11.43;;;;;;;26.26;58.08;97067.00;5099988;27;20283;-57
2021/09/07 09:37:31;;;;;;;14.52;11.13;;;;;;;26.34;60.93;97059.59;5108186;27;20072;-57
2021/09/07 09:40:00;;;;;;;18.25;11.85;;;;;;;26.77;57.57;97053.16;5105169;27;20513;-57
2021/09/07 09:42:30;;;;;;;25.77;13.70;;;;;;;27.13;59.31;97055.69;5103193;27;20078;-57
2021/09/07 09:45:02;;;;;;;16.35;12.10;;;;;;;26.98;59.98;97056.13;5098994;27;20078;-55
2021/09/07 09:47:35;;;;;;;15.65;12.15;;;;;;;27.69;55.80;97050.69;5102755;27;20483;-57
2021/09/07 09:50:03;;;;;;;14.00;11.32;;;;;;;28.00;55.28;97045.91;5110706;27;20520;-56
2021/09/07 09:52:35;;;;;;;16.77;11.63;;;;;;;27.51;55.96;97040.81;5102685;27;20094;-55
2021/09/07 09:55:06;;;;;;;16.27;11.98;;;;;;;28.00;53.74;97041.31;5103679;27;20071;-58
2021/09/07 09:57:36;;;;;;;14.60;10.80;;;;;;;27.97;51.37;97039.06;5101672;27;20071;-58
2021/09/07 10:00:06;;;;;;;15.15;10.93;;;;;;;27.12;53.61;97045.06;5096926;27;20527;-57
2021/09/07 10:02:34;;;;;;;14.27;10.00;;;;;;;27.56;52.72;97032.78;5100021;27;20079;-59
2021/09/07 10:05:03;;;;;;;14.98;11.20;;;;;;;28.45;48.98;97035.13;5098449;27;20082;-56
2021/09/07 10:07:33;;;;;;;13.52;10.82;;;;;;;28.98;49.02;97033.00;5115568;27;20079;-56
2021/09/07 10:10:04;;;;;;;13.10;11.27;;;;;;;28.68;45.22;97030.63;5098639;27;20552;-56
2021/09/07 10:12:40;;;;;;;13.43;10.23;;;;;;;27.41;50.14;97027.88;5095071;28;20067;-57
2021/09/07 10:15:20;;;;;;;14.02;11.27;;;;;;;29.29;45.89;97026.16;5108809;27;20055;-58
2021/09/07 10:17:50;;;;;;;15.43;12.00;;;;;;;28.70;48.27;97028.47;5101375;27;20078;-56
2021/09/07 10:20:48;;;;;;;14.85;11.50;;;;;;;28.26;48.16;97028.25;5100132;27;20083;-55
2021/09/07 10:26:03;;;;;;;16.15;12.15;;;;;;;27.63;47.85;97024.53;5097636;27;20314;-59
2021/09/07 10:28:34;;;;;;;15.93;12.15;;;;;;;27.63;50.16;97024.53;5100929;27;20071;-57
2021/09/07 10:31:07;;;;;;;16.05;12.52;;;;;;;28.18;49.73;97021.28;5098635;28;20102;-54
2021/09/07 10:33:38;;;;;;;16.15;13.05;;;;;;;27.20;50.23;97014.94;5097695;27;20064;-58
2021/09/07 10:36:12;;;;;;;15.55;12.52;;;;;;;28.35;48.57;97015.91;5105107;27;20075;-56
2021/09/07 10:38:43;;;;;;;18.70;12.32;;;;;;;28.99;46.38;97008.34;5101408;28;20086;-58
2021/09/07 10:41:42;;;;;;;16.67;12.25;;;;;;;28.92;44.88;97004.94;5101162;27;20086;-57
2021/09/07 10:44:15;;;;;;;17.33;12.75;;;;;;;28.48;43.96;97010.22;5099481;27;20233;-55
2021/09/07 10:46:49;;;;;;;13.43;11.05;;;;;;;28.17;44.04;97006.09;5108092;27;20067;-57
2021/09/07 10:49:22;;;;;;;15.00;10.30;;;;;;;29.47;43.83;97003.31;5101446;27;20105;-56
2021/09/07 10:52:20;;;;;;;14.63;11.02;;;;;;;30.50;40.12;96995.25;5102321;27;20063;-57
2021/09/07 10:55:15;;;;;;;18.02;11.45;;;;;;;30.40;41.67;96995.97;5109878;27;20078;-54
2021/09/07 10:58:06;;;;;;;13.88;10.35;;;;;;;29.56;40.98;96988.22;5095564;27;20043;-55
2021/09/07 11:00:38;;;;;;;13.32;10.32;;;;;;;29.73;40.48;96993.59;5104744;27;20470;-58
2021/09/07 11:03:09;;;;;;;12.23;10.02;;;;;;;30.35;40.50;96989.66;5108755;27;20486;-59
2021/09/07 11:05:45;;;;;;;13.88;10.30;;;;;;;28.90;41.53;96989.97;5094721;28;20082;-57
2021/09/07 11:08:16;;;;;;;13.90;10.00;;;;;;;29.82;39.74;96996.69;5109220;27;20092;-60
2021/09/07 11:10:47;;;;;;;13.43;10.38;;;;;;;29.20;41.92;96997.78;5096735;27;20056;-55
2021/09/07 11:13:24;;;;;;;13.80;11.10;;;;;;;29.73;41.06;96993.59;5091345;28;20067;-56
2021/09/07 11:15:54;;;;;;;11.38;9.27;;;;;;;30.42;40.76;96987.53;5104006;27;20062;-54
2021/09/07 11:18:24;;;;;;;17.63;10.75;;;;;;;29.53;41.54;96988.72;5104713;27;20055;-57
2021/09/07 11:20:52;;;;;;;;;;;;;;;29.19;41.10;96991.53;5100775;27;20067;-56
2021/09/07 11:23:22;;;;;;;13.43;10.55;;;;;;;29.44;41.50;96987.50;5097832;27;19978;-55
2021/09/07 11:25:52;;;;;;;14.13;12.02;;;;;;;29.68;42.99;96991.63;5098943;27;20479;-55